MSC Maeva — H9TF — position and weather

sailwx.info

Track history (hours):
 
Tides and Currents Weather Stations Pressure Air Temp Water Temp Dewpoint Dewpoint Depression Visibility Wind Speed Wind Dir Waves Ship Positions

MSC Maeva

Last reported at 2016-Dec-10 08:33 UTC. Time now 2016-Dec-11 04:24 UTC.
Position N 40°36' W 074°02'.

Type: Ship (hazmat cat A). MMSI: 371851000.

Date/timePositionNaut miles runAvg speedWind from/ knotsBaromVisibWave heightAir tempDewpointWater temp
2016-Dec-10 08:33N 40°36' W 074°02'6 6.1
2016-Dec-10 07:33N 40°39' W 074°09'2 2.0
2016-Dec-10 06:32N 40°41' W 074°09'0 0.0
2016-Dec-10 05:32N 40°41' W 074°09'0 0.0
2016-Dec-10 04:32N 40°41' W 074°09'0 0.0
2016-Dec-10 03:29N 40°41' W 074°09'0 0.0
2016-Dec-10 02:32N 40°41' W 074°09'0 0.0
2016-Dec-10 01:32N 40°41' W 074°09'0 0.0
2016-Dec-10 00:32N 40°41' W 074°09'0 0.0
2016-Dec-09 23:32N 40°41' W 074°09'0 0.0
2016-Dec-09 22:32N 40°41' W 074°09'0 0.0
2016-Dec-09 21:32N 40°41' W 074°09'0 0.0
2016-Dec-09 20:32N 40°41' W 074°09'0 0.0
2016-Dec-09 19:32N 40°41' W 074°09'0 0.0
2016-Dec-09 18:32N 40°41' W 074°09'0 0.0
2016-Dec-09 17:32N 40°41' W 074°09'0 0.0
2016-Dec-09 16:32N 40°41' W 074°09'0 0.0
2016-Dec-09 15:32N 40°41' W 074°09'0 0.0
2016-Dec-09 14:29N 40°41' W 074°09'0 0.0
2016-Dec-09 13:32N 40°41' W 074°09'0 0.0
2016-Dec-09 12:32N 40°41' W 074°09'0 0.0
2016-Dec-09 11:32N 40°41' W 074°09'0 0.0
2016-Dec-09 10:32N 40°41' W 074°09'0 0.0
2016-Dec-09 09:28N 40°41' W 074°09'0 0.0
2016-Dec-09 08:31N 40°41' W 074°09'0 0.0
2016-Dec-09 07:31N 40°41' W 074°09'0 0.0
2016-Dec-09 06:28N 40°41' W 074°09'0 0.0
2016-Dec-09 05:31N 40°41' W 074°09'0 0.0
2016-Dec-09 04:28N 40°41' W 074°09'0 0.0
2016-Dec-09 03:28N 40°41' W 074°09'0 0.0
2016-Dec-09 02:31N 40°41' W 074°09'0 0.0
2016-Dec-09 01:31N 40°41' W 074°09'0 0.0
2016-Dec-09 00:31N 40°41' W 074°09'0 0.0
2016-Dec-08 23:28N 40°41' W 074°09'0 0.0
2016-Dec-08 22:31N 40°41' W 074°09'0 0.0
2016-Dec-08 21:31N 40°41' W 074°09'0 0.0
2016-Dec-08 20:31N 40°41' W 074°09'0 0.0
2016-Dec-08 19:31N 40°41' W 074°09'0 0.0
2016-Dec-08 18:31N 40°41' W 074°09'0 0.0
2016-Dec-08 17:31N 40°41' W 074°09'0 0.0
2016-Dec-08 16:31N 40°41' W 074°09'0 0.0
2016-Dec-08 15:33N 40°41' W 074°09'3 2.9
2016-Dec-08 14:33N 40°39' W 074°06'5 4.9
2016-Dec-08 13:32N 40°35' W 074°02'0 0.0
2016-Dec-08 12:32N 40°35' W 074°02'0 0.0
2016-Dec-08 11:32N 40°35' W 074°02'0 0.0
2016-Dec-08 10:32N 40°35' W 074°02'0 0.1
2016-Dec-08 09:32N 40°35' W 074°02'0 0.2
2016-Dec-08 08:32N 40°36' W 074°02'0 0.0
2016-Dec-08 07:29N 40°36' W 074°02'0 0.0
2016-Dec-08 06:32N 40°36' W 074°02'0 0.0
2016-Dec-08 05:29N 40°36' W 074°02'0 0.1
2016-Dec-08 04:32N 40°36' W 074°02'0 0.3
2016-Dec-08 03:32N 40°35' W 074°02'0 0.0
2016-Dec-08 02:32N 40°35' W 074°02'0 0.0
2016-Dec-08 01:32N 40°35' W 074°02'0 0.0
2016-Dec-08 00:32N 40°35' W 074°02'0 0.0
2016-Dec-07 23:32N 40°35' W 074°02'4 4.5
2016-Dec-07 22:33N 40°31' W 073°60'10 9.6
2016-Dec-07 21:33N 40°27' W 073°49'5 1.5
2016-Dec-07 18:33N 40°30' W 073°44'4 3.6
2016-Dec-07 17:33N 40°28' W 073°40'  
2016-Dec-01 04:11N 35°59' W 005°28'1219.3
2016-Dec-01 03:33N 36°02' W 005°14'12320.3
2016-Nov-30 21:30N 36°24' W 002°43'2321.1
2016-Nov-30 20:25N 36°26' W 002°15'  
Track history (hours):
 
Tides and Currents Weather Stations Pressure Air Temp Water Temp Dewpoint Dewpoint Depression Visibility Wind Speed Wind Dir Waves Ship Positions

MSC Maeva

Last reported at 2016-Dec-10 08:33 UTC. Time now 2016-Dec-11 04:24 UTC.
Position N 40°36' W 074°02'.

Type: Ship (hazmat cat A). MMSI: 371851000.

Date/timePositionNaut miles runAvg speedWind from/ knotsBaromVisibWave heightAir tempDewpointWater temp
2016-Dec-10 08:33N 40°36' W 074°02'6 6.1
2016-Dec-10 07:33N 40°39' W 074°09'2 2.0
2016-Dec-10 06:32N 40°41' W 074°09'0 0.0
2016-Dec-10 05:32N 40°41' W 074°09'0 0.0
2016-Dec-10 04:32N 40°41' W 074°09'0 0.0
2016-Dec-10 03:29N 40°41' W 074°09'0 0.0
2016-Dec-10 02:32N 40°41' W 074°09'0 0.0
2016-Dec-10 01:32N 40°41' W 074°09'0 0.0
2016-Dec-10 00:32N 40°41' W 074°09'0 0.0
2016-Dec-09 23:32N 40°41' W 074°09'0 0.0
2016-Dec-09 22:32N 40°41' W 074°09'0 0.0
2016-Dec-09 21:32N 40°41' W 074°09'0 0.0
2016-Dec-09 20:32N 40°41' W 074°09'0 0.0
2016-Dec-09 19:32N 40°41' W 074°09'0 0.0
2016-Dec-09 18:32N 40°41' W 074°09'0 0.0
2016-Dec-09 17:32N 40°41' W 074°09'0 0.0
2016-Dec-09 16:32N 40°41' W 074°09'0 0.0
2016-Dec-09 15:32N 40°41' W 074°09'0 0.0
2016-Dec-09 14:29N 40°41' W 074°09'0 0.0
2016-Dec-09 13:32N 40°41' W 074°09'0 0.0
2016-Dec-09 12:32N 40°41' W 074°09'0 0.0
2016-Dec-09 11:32N 40°41' W 074°09'0 0.0
2016-Dec-09 10:32N 40°41' W 074°09'0 0.0
2016-Dec-09 09:28N 40°41' W 074°09'0 0.0
2016-Dec-09 08:31N 40°41' W 074°09'0 0.0
2016-Dec-09 07:31N 40°41' W 074°09'0 0.0
2016-Dec-09 06:28N 40°41' W 074°09'0 0.0
2016-Dec-09 05:31N 40°41' W 074°09'0 0.0
2016-Dec-09 04:28N 40°41' W 074°09'0 0.0
2016-Dec-09 03:28N 40°41' W 074°09'0 0.0
2016-Dec-09 02:31N 40°41' W 074°09'0 0.0
2016-Dec-09 01:31N 40°41' W 074°09'0 0.0
2016-Dec-09 00:31N 40°41' W 074°09'0 0.0
2016-Dec-08 23:28N 40°41' W 074°09'0 0.0
2016-Dec-08 22:31N 40°41' W 074°09'0 0.0
2016-Dec-08 21:31N 40°41' W 074°09'0 0.0
2016-Dec-08 20:31N 40°41' W 074°09'0 0.0
2016-Dec-08 19:31N 40°41' W 074°09'0 0.0
2016-Dec-08 18:31N 40°41' W 074°09'0 0.0
2016-Dec-08 17:31N 40°41' W 074°09'0 0.0
2016-Dec-08 16:31N 40°41' W 074°09'0 0.0
2016-Dec-08 15:33N 40°41' W 074°09'3 2.9
2016-Dec-08 14:33N 40°39' W 074°06'5 4.9
2016-Dec-08 13:32N 40°35' W 074°02'0 0.0
2016-Dec-08 12:32N 40°35' W 074°02'0 0.0
2016-Dec-08 11:32N 40°35' W 074°02'0 0.0
2016-Dec-08 10:32N 40°35' W 074°02'0 0.1
2016-Dec-08 09:32N 40°35' W 074°02'0 0.2
2016-Dec-08 08:32N 40°36' W 074°02'0 0.0
2016-Dec-08 07:29N 40°36' W 074°02'0 0.0
2016-Dec-08 06:32N 40°36' W 074°02'0 0.0
2016-Dec-08 05:29N 40°36' W 074°02'0 0.1
2016-Dec-08 04:32N 40°36' W 074°02'0 0.3
2016-Dec-08 03:32N 40°35' W 074°02'0 0.0
2016-Dec-08 02:32N 40°35' W 074°02'0 0.0
2016-Dec-08 01:32N 40°35' W 074°02'0 0.0
2016-Dec-08 00:32N 40°35' W 074°02'0 0.0
2016-Dec-07 23:32N 40°35' W 074°02'4 4.5
2016-Dec-07 22:33N 40°31' W 073°60'10 9.6
2016-Dec-07 21:33N 40°27' W 073°49'5 1.5
2016-Dec-07 18:33N 40°30' W 073°44'4 3.6
2016-Dec-07 17:33N 40°28' W 073°40'  
2016-Dec-01 04:11N 35°59' W 005°28'1219.3
2016-Dec-01 03:33N 36°02' W 005°14'12320.3
2016-Nov-30 21:30N 36°24' W 002°43'2321.1
2016-Nov-30 20:25N 36°26' W 002°15'  

Dump ship's entire track history